Notice: Undefined index: language in D:\xampp\htdocs\vam\index.php on line 25
Open Air Virtual

 METAR AND TAF INFORMATION
METAR FOR ESNV
ADDS - METARS form results

(2223 UTC 14 December 2019)
Data provider http://aviationweather.gov/metar/data/
 
METAR text: ESNV 142150Z AUTO 09006KT 1900 -SN VV016 M01/M03 Q0991
Conditions at: ESNV (VILHELMINA , SE) observed 2150 UTC 14 December 2019
Temperature: -1.0°C (30°F)
Dewpoint: -3.0°C (27°F) [RH = 86%]
Pressure (altimeter): 29.26 inches Hg (991.0 mb)
Winds: from the E (90 degrees) at 7 MPH (6 knots; 3.1 m/s)
Visibility: 1.18 miles (1.90 km)
Ceiling: indefinite ceiling with vertical visibility of 1600 feet AGL
Clouds: obscured sky
Weather: -SN  (light snow)

 AIRPORT MAP

 RUNWAY INFORMATION
Runway 10 Runway length 4928 ft Runway width 98 ft
Runway elevation 1138 ft Runway displaced threshold 0 ft Runway heading 103
Runway 28 Runway length 4928 ft Runway width 98 ft
Runway elevation 1138 ft Runway displaced threshold 793 ft Runway heading 283

 AIRPORT FREQUENCIES
Type AFIS Name AFIS Frequency 122.55 MHZ

 AIRPORT NEAR NAVIGATION AIDS
Type NDB Name Vilhelmina Frequency 406 KHZ



Powered by Virtual Airlines Manager [v2.6.2]